Time;durP1;ratioP1;P1;durP2;ratioP2;P2;SDS_P1;SDS_P2;PMS_P1;PMS_P2;Temp;Humidity;BMP_temperature;BMP_pressure;BME280_temperature;BME280_humidity;BME280_pressure;Samples;Min_cycle;Max_cycle;Signal;HPM_P1;HPM_P2
2023/07/25 00:00:04;;;;;;;12.07;3.00;;;;;;;-143.49;100.00;65027.28;5075956;28;20023;-67
2023/07/25 00:02:29;;;;;;;10.15;2.90;;;;;;;-143.49;100.00;65027.28;5075876;28;20031;-67
2023/07/25 00:04:55;;;;;;;8.75;3.20;;;;;;;-143.49;100.00;65027.28;5093927;28;20398;-67
2023/07/25 00:07:20;;;;;;;8.48;2.70;;;;;;;-143.49;100.00;65027.28;5093743;28;20493;-67
2023/07/25 00:09:45;;;;;;;12.98;2.97;;;;;;;-143.49;100.00;65027.28;5094928;28;20044;-66
2023/07/25 00:12:10;;;;;;;9.45;3.13;;;;;;;-143.49;100.00;65027.28;5075796;28;20030;-66
2023/07/25 00:14:36;;;;;;;10.45;3.13;;;;;;;-143.49;100.00;65027.28;5093904;28;20019;-66
2023/07/25 00:17:01;;;;;;;8.98;2.88;;;;;;;-143.49;100.00;65027.28;5093464;28;20383;-66
2023/07/25 00:19:27;;;;;;;13.05;3.45;;;;;;;-143.49;100.00;65027.28;5093584;28;20031;-66
2023/07/25 00:21:52;;;;;;;10.05;3.35;;;;;;;-143.49;100.00;65027.28;5092660;28;20050;-66
2023/07/25 00:24:18;;;;;;;7.07;3.28;;;;;;;-143.49;100.00;65027.28;5093429;28;20418;-66
2023/07/25 00:26:43;;;;;;;9.13;3.00;;;;;;;-143.49;100.00;65027.28;5093776;28;20066;-66
2023/07/25 00:29:09;;;;;;;9.80;3.17;;;;;;;-143.49;100.00;65027.28;5093671;28;20077;-67
2023/07/25 00:31:34;;;;;;;8.77;3.05;;;;;;;-143.49;100.00;65027.28;5093527;28;20036;-66
2023/07/25 00:34:00;;;;;;;9.60;3.30;;;;;;;-143.49;100.00;65027.28;5093719;28;20024;-66
2023/07/25 00:36:25;;;;;;;11.93;3.38;;;;;;;-143.49;100.00;65027.28;5093547;28;20098;-66
2023/07/25 00:38:51;;;;;;;6.88;3.10;;;;;;;-143.49;100.00;65027.28;5093636;28;20422;-66
2023/07/25 00:41:16;;;;;;;10.38;3.60;;;;;;;-143.49;100.00;65027.28;5093310;28;20028;-65
2023/07/25 00:43:41;;;;;;;12.45;3.63;;;;;;;-143.49;100.00;65027.28;5093496;28;20020;-66
2023/07/25 00:46:07;;;;;;;9.05;3.00;;;;;;;-143.49;100.00;65027.28;5093649;28;20030;-66
2023/07/25 00:48:32;;;;;;;11.65;3.75;;;;;;;-143.49;100.00;65027.28;5075162;28;20471;-66
2023/07/25 00:50:58;;;;;;;9.98;3.40;;;;;;;-143.49;100.00;65027.28;5075304;28;20100;-66
2023/07/25 00:53:25;;;;;;;11.07;3.22;;;;;;;-143.49;100.00;65027.28;5093480;28;20024;-66
2023/07/25 00:55:50;;;;;;;7.18;3.20;;;;;;;-143.49;100.00;65027.28;5093317;28;20106;-66
2023/07/25 00:58:17;;;;;;;8.30;3.20;;;;;;;-143.49;100.00;65027.28;5093746;28;20024;-66
2023/07/25 01:00:43;;;;;;;8.05;3.40;;;;;;;-143.49;100.00;65027.28;5093122;28;20028;-67
2023/07/25 01:03:09;;;;;;;8.95;3.10;;;;;;;-143.49;100.00;65027.28;5093094;28;20089;-66
2023/07/25 01:05:39;;;;;;;13.15;3.25;;;;;;;-143.49;100.00;65027.28;5093279;28;20028;-67
2023/07/25 01:08:04;;;;;;;8.82;3.00;;;;;;;-143.49;100.00;65027.28;5093191;28;20511;-67
2023/07/25 01:10:32;;;;;;;9.40;3.15;;;;;;;-143.49;100.00;65027.28;5092982;28;20028;-66
2023/07/25 01:12:57;;;;;;;10.40;3.40;;;;;;;-143.49;100.00;65027.28;5093200;28;20020;-67
2023/07/25 01:15:23;;;;;;;13.40;3.03;;;;;;;-143.49;100.00;65027.28;5075046;28;20073;-67
2023/07/25 01:17:49;;;;;;;10.05;3.70;;;;;;;-143.49;100.00;65027.28;5093306;28;20103;-68
2023/07/25 01:20:15;;;;;;;13.95;3.45;;;;;;;-143.49;100.00;65027.28;5093138;28;20115;-67
2023/07/25 01:22:40;;;;;;;8.75;3.20;;;;;;;-143.49;100.00;65027.28;5093273;28;20032;-67
2023/07/25 01:25:07;;;;;;;10.13;3.17;;;;;;;-143.49;100.00;65027.28;5093372;28;20071;-67
2023/07/25 01:27:32;;;;;;;7.82;2.90;;;;;;;-143.49;100.00;65027.28;5093039;28;20024;-67
2023/07/25 01:29:57;;;;;;;9.93;3.15;;;;;;;-143.49;100.00;65027.28;5074974;28;20035;-67
2023/07/25 01:32:23;;;;;;;8.88;2.83;;;;;;;-143.49;100.00;65027.28;5094141;28;20066;-67
2023/07/25 01:34:48;;;;;;;11.02;3.20;;;;;;;-143.49;100.00;65027.28;5096623;28;20020;-67
2023/07/25 01:37:15;;;;;;;6.43;2.85;;;;;;;-143.49;100.00;65027.28;5096641;28;20024;-67
2023/07/25 01:39:42;;;;;;;14.63;3.42;;;;;;;-143.49;100.00;65027.28;5096529;28;20433;-67
2023/07/25 01:42:08;;;;;;;7.75;3.28;;;;;;;-143.49;100.00;65027.28;5096552;28;20028;-66
2023/07/25 01:44:33;;;;;;;8.05;2.80;;;;;;;-143.49;100.00;65027.28;5077797;28;20059;-66
2023/07/25 01:46:58;;;;;;;10.23;3.13;;;;;;;-143.49;100.00;65027.28;5078323;28;20117;-66
2023/07/25 01:49:24;;;;;;;10.93;3.20;;;;;;;-143.49;100.00;65027.28;5096380;28;20091;-67
2023/07/25 01:51:49;;;;;;;13.52;3.10;;;;;;;-143.49;100.00;65027.28;5096379;28;20069;-67
2023/07/25 01:54:16;;;;;;;5.68;2.78;;;;;;;-143.49;100.00;65027.28;5096370;28;20438;-66
2023/07/25 01:56:42;;;;;;;11.32;3.20;;;;;;;-143.49;100.00;65027.28;5096405;28;20028;-68
2023/07/25 01:59:07;;;;;;;9.27;2.95;;;;;;;-143.49;100.00;65027.28;5096333;28;20031;-67
2023/07/25 02:01:32;;;;;;;10.32;2.92;;;;;;;-143.49;100.00;65027.28;5095964;28;20032;-67
2023/07/25 02:03:58;;;;;;;6.57;2.80;;;;;;;-143.49;100.00;65027.28;5096243;28;20055;-66
2023/07/25 02:06:23;;;;;;;8.98;2.92;;;;;;;-143.49;100.00;65027.28;5095960;28;20110;-67
2023/07/25 02:08:48;;;;;;;8.05;2.95;;;;;;;-143.49;100.00;65027.28;5077605;28;20051;-68
2023/07/25 02:11:14;;;;;;;11.38;2.80;;;;;;;-143.49;100.00;65027.28;5095817;28;20073;-67
2023/07/25 02:13:39;;;;;;;5.97;2.78;;;;;;;-143.49;100.00;65027.28;5095732;28;20027;-67
2023/07/25 02:16:04;;;;;;;9.85;2.92;;;;;;;-143.49;100.00;65027.28;5095970;28;20020;-66
2023/07/25 02:18:30;;;;;;;9.23;3.22;;;;;;;-143.49;100.00;65027.28;5095849;28;20372;-66
2023/07/25 02:20:55;;;;;;;8.13;3.00;;;;;;;-143.49;100.00;65027.28;5095623;28;20020;-66
2023/07/25 02:23:20;;;;;;;6.53;2.70;;;;;;;-143.49;100.00;65027.28;5095621;28;20184;-66
2023/07/25 02:25:47;;;;;;;11.77;3.10;;;;;;;-143.49;100.00;65027.28;5095520;28;20089;-66
2023/07/25 02:28:12;;;;;;;10.02;2.97;;;;;;;-143.49;100.00;65027.28;5095552;28;20499;-67
2023/07/25 02:30:38;;;;;;;8.68;2.65;;;;;;;-143.49;100.00;65027.28;5095708;28;20031;-67
2023/07/25 02:33:03;;;;;;;7.60;2.58;;;;;;;-143.49;100.00;65027.28;5077409;28;20403;-66
2023/07/25 02:35:29;;;;;;;7.07;2.67;;;;;;;-143.49;100.00;65027.28;5095298;28;20012;-67
2023/07/25 02:37:54;;;;;;;9.35;2.80;;;;;;;-143.49;100.00;65027.28;5095730;28;20356;-67
2023/07/25 02:40:20;;;;;;;7.72;2.90;;;;;;;-143.49;100.00;65027.28;5095373;28;20102;-67
2023/07/25 02:42:45;;;;;;;7.80;2.80;;;;;;;-143.49;100.00;65027.28;5095386;28;20079;-67
2023/07/25 02:45:11;;;;;;;8.02;2.83;;;;;;;-143.49;100.00;65027.28;5094404;28;20089;-67
2023/07/25 02:47:36;;;;;;;8.80;2.53;;;;;;;-143.49;100.00;65027.28;5095568;28;20028;-68
2023/07/25 02:50:02;;;;;;;6.20;2.67;;;;;;;-143.49;100.00;65027.28;5095184;28;20417;-67
2023/07/25 02:52:27;;;;;;;8.27;3.03;;;;;;;-143.49;100.00;65027.28;5095227;28;20046;-66
2023/07/25 02:54:52;;;;;;;8.77;3.00;;;;;;;-143.49;100.00;65027.28;5077024;28;20485;-67
2023/07/25 02:57:17;;;;;;;11.27;3.50;;;;;;;-143.49;100.00;65027.28;5095024;28;20110;-67
2023/07/25 02:59:43;;;;;;;9.23;3.28;;;;;;;-143.49;100.00;65027.28;5095096;28;20034;-68
2023/07/25 03:02:10;;;;;;;14.13;3.28;;;;;;;-143.49;100.00;65027.28;5094947;28;20012;-69
2023/07/25 03:04:35;;;;;;;16.13;3.38;;;;;;;-143.49;100.00;65027.28;5094941;28;20020;-67
2023/07/25 03:07:01;;;;;;;9.27;3.22;;;;;;;-143.49;100.00;65027.28;5095008;28;20376;-66
2023/07/25 03:09:26;;;;;;;8.90;3.00;;;;;;;-143.49;100.00;65027.28;5094719;28;20506;-67
2023/07/25 03:11:52;;;;;;;7.28;3.08;;;;;;;-143.49;100.00;65027.28;5094793;28;20028;-67
2023/07/25 03:14:19;;;;;;;8.57;2.90;;;;;;;-143.49;100.00;65027.28;5094704;28;20052;-67
2023/07/25 03:16:45;;;;;;;11.23;3.30;;;;;;;-143.49;100.00;65027.28;5076421;28;20443;-66
2023/07/25 03:19:10;;;;;;;5.50;2.92;;;;;;;-143.49;100.00;65027.28;5094648;28;20028;-66
2023/07/25 03:21:35;;;;;;;9.18;3.53;;;;;;;-143.49;100.00;65027.28;5094382;28;20032;-67
2023/07/25 03:24:00;;;;;;;14.68;3.50;;;;;;;-143.49;100.00;65027.28;5094549;28;20066;-66
2023/07/25 03:26:26;;;;;;;6.63;3.03;;;;;;;-143.49;100.00;65027.28;5094449;28;20106;-66
2023/07/25 03:28:51;;;;;;;7.72;3.17;;;;;;;-143.49;100.00;65027.28;5094616;28;20020;-67
2023/07/25 03:31:16;;;;;;;8.25;3.42;;;;;;;-143.49;100.00;65027.28;5094406;28;20095;-66
2023/07/25 03:33:42;;;;;;;8.93;3.15;;;;;;;-143.49;100.00;65027.28;5094310;28;20039;-67
2023/07/25 03:36:07;;;;;;;13.32;3.28;;;;;;;-143.49;100.00;65027.28;5094353;28;20488;-67
2023/07/25 03:38:33;;;;;;;9.13;3.28;;;;;;;-143.49;100.00;65027.28;5094499;28;20103;-67
2023/07/25 03:40:58;;;;;;;7.30;2.88;;;;;;;-143.49;100.00;65027.28;5076130;28;20395;-67
2023/07/25 03:43:24;;;;;;;9.95;3.13;;;;;;;-143.49;100.00;65027.28;5094197;28;20422;-67
2023/07/25 03:45:49;;;;;;;8.40;3.05;;;;;;;-143.49;100.00;65027.28;5094052;28;20024;-67
2023/07/25 03:48:15;;;;;;;7.13;2.92;;;;;;;-143.49;100.00;65027.28;5094032;28;20023;-67
2023/07/25 03:50:40;;;;;;;6.15;2.70;;;;;;;-143.49;100.00;65027.28;5093947;28;20028;-67
2023/07/25 03:53:05;;;;;;;8.75;3.08;;;;;;;-143.49;100.00;65027.28;5093907;28;20106;-67
2023/07/25 03:55:31;;;;;;;9.23;3.30;;;;;;;-143.49;100.00;65027.28;5094029;28;20046;-67
2023/07/25 03:57:56;;;;;;;6.47;2.65;;;;;;;-143.49;100.00;65027.28;5093835;28;20020;-67
2023/07/25 04:00:25;;;;;;;9.13;2.90;;;;;;;-143.49;100.00;65027.28;5093956;28;20024;-67
2023/07/25 04:02:50;;;;;;;6.55;2.83;;;;;;;-143.49;100.00;65027.28;5093637;28;20016;-67
2023/07/25 04:05:15;;;;;;;7.38;2.60;;;;;;;-143.49;100.00;65027.28;5093809;28;20035;-67
2023/07/25 04:07:41;;;;;;;11.13;3.03;;;;;;;-143.49;100.00;65027.28;5094279;28;20103;-67
2023/07/25 04:10:06;;;;;;;10.93;2.85;;;;;;;-143.49;100.00;65027.28;5100857;28;20051;-68
2023/07/25 04:12:32;;;;;;;4.28;2.50;;;;;;;-143.49;100.00;65027.28;5102612;28;20032;-66
2023/07/25 04:14:58;;;;;;;10.90;3.15;;;;;;;-143.49;100.00;65027.28;5103171;28;20024;-66
2023/07/25 04:17:23;;;;;;;10.93;2.67;;;;;;;-143.49;100.00;65027.28;5102448;28;20059;-66
2023/07/25 04:19:48;;;;;;;7.50;2.90;;;;;;;-143.49;100.00;65027.28;5095197;28;20544;-67
2023/07/25 04:22:14;;;;;;;5.18;2.70;;;;;;;-143.49;100.00;65027.28;5093455;28;20514;-67
2023/07/25 04:24:39;;;;;;;12.25;2.95;;;;;;;-143.49;100.00;65027.28;5093432;28;20494;-67
2023/07/25 04:27:05;;;;;;;8.10;2.45;;;;;;;-143.49;100.00;65027.28;5075225;28;20023;-67
2023/07/25 04:29:30;;;;;;;12.40;2.85;;;;;;;-143.49;100.00;65027.28;5093395;28;20461;-67
2023/07/25 04:31:56;;;;;;;13.60;2.92;;;;;;;-143.49;100.00;65027.28;5093725;28;20534;-67
2023/07/25 04:34:21;;;;;;;12.13;2.70;;;;;;;-143.49;100.00;65027.28;5075291;28;20035;-67
2023/07/25 04:36:47;;;;;;;8.65;2.72;;;;;;;-143.49;100.00;65027.28;5075281;28;20020;-67
2023/07/25 04:39:12;;;;;;;14.77;2.67;;;;;;;-143.49;100.00;65027.28;5093516;28;20029;-67
2023/07/25 04:41:38;;;;;;;7.75;2.42;;;;;;;-143.49;100.00;65027.28;5093028;28;20450;-67
2023/07/25 04:44:03;;;;;;;11.18;2.53;;;;;;;-143.49;100.00;65027.28;5075354;28;20028;-67
2023/07/25 04:46:30;;;;;;;12.18;2.42;;;;;;;-143.49;100.00;65027.28;5093110;28;20538;-66
2023/07/25 04:48:56;;;;;;;4.60;1.92;;;;;;;-143.49;100.00;65027.28;5093372;28;20515;-66
2023/07/25 04:51:21;;;;;;;12.65;2.55;;;;;;;-143.49;100.00;65027.28;5092926;28;20469;-66
2023/07/25 04:53:46;;;;;;;10.27;2.30;;;;;;;-143.49;100.00;65027.28;5093049;28;20027;-66
2023/07/25 04:56:12;;;;;;;8.73;2.63;;;;;;;-143.49;100.00;65027.28;5094277;28;20020;-66
2023/07/25 04:58:43;;;;;;;9.13;2.42;;;;;;;-143.49;100.00;65027.28;5075404;28;20035;-66
2023/07/25 05:01:09;;;;;;;7.80;2.30;;;;;;;-143.49;100.00;65027.28;5093301;28;20411;-66
2023/07/25 05:03:35;;;;;;;11.88;2.00;;;;;;;-143.49;100.00;65027.28;5093556;28;20020;-66
2023/07/25 05:06:00;;;;;;;5.85;2.03;;;;;;;-143.49;100.00;65027.28;5093424;28;20024;-66
2023/07/25 05:08:26;;;;;;;5.70;1.70;;;;;;;-143.49;100.00;65027.28;5095815;28;20104;-66
2023/07/25 05:10:52;;;;;;;9.40;2.00;;;;;;;-143.49;100.00;65027.28;5097498;28;20036;-66
2023/07/25 05:13:18;;;;;;;15.77;2.53;;;;;;;-143.49;100.00;65027.28;5097510;28;20073;-66
2023/07/25 05:15:43;;;;;;;10.20;2.58;;;;;;;-143.49;100.00;65027.28;5096804;28;20479;-66
2023/07/25 05:18:08;;;;;;;9.57;2.28;;;;;;;-143.49;100.00;65027.28;5096862;28;20028;-66
2023/07/25 05:20:34;;;;;;;8.15;2.08;;;;;;;-143.49;100.00;65027.28;5097026;28;20031;-66
2023/07/25 05:22:59;;;;;;;8.23;2.40;;;;;;;-143.49;100.00;65027.28;5096826;28;20035;-66
2023/07/25 05:25:24;;;;;;;9.77;2.20;;;;;;;-143.49;100.00;65027.28;5096787;28;20379;-67
2023/07/25 05:27:50;;;;;;;10.50;2.30;;;;;;;-143.49;100.00;65027.28;5079771;28;20023;-67
2023/07/25 05:30:15;;;;;;;8.27;2.28;;;;;;;-143.49;100.00;65027.28;5083545;28;20031;-67
2023/07/25 05:32:40;;;;;;;9.20;2.15;;;;;;;-143.49;100.00;65027.28;5103188;28;20440;-66
2023/07/25 05:35:06;;;;;;;9.30;2.03;;;;;;;-143.49;100.00;65027.28;5103488;28;20471;-66
2023/07/25 05:37:37;;;;;;;9.15;2.33;;;;;;;-143.49;100.00;65027.28;5085070;28;20395;-65
2023/07/25 05:40:03;;;;;;;11.77;2.03;;;;;;;-143.49;100.00;65027.28;5101369;28;20102;-66
2023/07/25 05:42:29;;;;;;;14.30;2.05;;;;;;;-143.49;100.00;65027.28;5101968;28;20059;-67
2023/07/25 05:44:54;;;;;;;11.55;1.90;;;;;;;-143.49;100.00;65027.28;5102518;28;20027;-71
2023/07/25 05:47:20;;;;;;;6.93;2.00;;;;;;;-143.49;100.00;65027.28;5080586;28;20078;-71
2023/07/25 05:49:45;;;;;;;10.25;2.05;;;;;;;-143.49;100.00;65027.28;5096692;28;20439;-71
2023/07/25 05:52:10;;;;;;;7.22;1.90;;;;;;;-143.49;100.00;65027.28;5096592;28;20040;-72
2023/07/25 05:54:36;;;;;;;8.90;1.80;;;;;;;-143.49;100.00;65027.28;5096345;28;20031;-71
2023/07/25 05:57:01;;;;;;;8.90;2.25;;;;;;;-143.49;100.00;65027.28;5096128;28;20110;-72
2023/07/25 05:59:27;;;;;;;10.25;2.17;;;;;;;-143.49;100.00;65027.28;5096442;28;20038;-72
2023/07/25 06:01:52;;;;;;;10.10;1.92;;;;;;;-143.49;100.00;65027.28;5097169;28;20031;-72
2023/07/25 06:04:18;;;;;;;8.18;1.60;;;;;;;-143.49;100.00;65027.28;5097512;28;20040;-74
2023/07/25 06:06:43;;;;;;;7.03;1.90;;;;;;;-143.49;100.00;65027.28;5079430;28;20450;-72
2023/07/25 06:09:09;;;;;;;14.40;1.85;;;;;;;-143.49;100.00;65027.28;5097273;28;20052;-72
2023/07/25 06:11:35;;;;;;;9.57;2.20;;;;;;;-143.49;100.00;65027.28;5079072;28;20364;-72
2023/07/25 06:14:01;;;;;;;8.23;1.70;;;;;;;-143.49;100.00;65027.28;5078227;28;20089;-71
2023/07/25 06:16:26;;;;;;;9.52;2.38;;;;;;;-143.49;100.00;65027.28;5078130;28;20028;-73
2023/07/25 06:18:51;;;;;;;5.38;1.35;;;;;;;-143.49;100.00;65027.28;5077474;28;20067;-73
2023/07/25 06:21:17;;;;;;;10.93;1.70;;;;;;;-143.49;100.00;65027.28;5077386;28;20028;-72
2023/07/25 06:23:42;;;;;;;5.47;1.58;;;;;;;-143.49;100.00;65027.28;5094907;28;20501;-72
2023/07/25 06:26:08;;;;;;;4.82;1.58;;;;;;;-143.49;100.00;65027.28;5095439;28;20494;-72
2023/07/25 06:28:33;;;;;;;8.65;1.63;;;;;;;-143.49;100.00;65027.28;5095658;28;20453;-71
2023/07/25 06:30:58;;;;;;;10.18;1.48;;;;;;;-143.49;100.00;65027.28;5077158;28;20024;-71
2023/07/25 06:33:24;;;;;;;7.72;1.50;;;;;;;-143.49;100.00;65027.28;5095767;28;20024;-72
2023/07/25 06:35:49;;;;;;;6.50;1.13;;;;;;;-143.49;100.00;65027.28;5095674;28;20024;-72
2023/07/25 06:38:14;;;;;;;8.43;1.73;;;;;;;-143.49;100.00;65027.28;5095442;28;20077;-71
2023/07/25 06:40:40;;;;;;;8.23;1.50;;;;;;;-143.49;100.00;65027.28;5095173;28;20122;-71
2023/07/25 06:43:05;;;;;;;8.18;1.60;;;;;;;-143.49;100.00;65027.28;5095014;28;20024;-72
2023/07/25 06:45:30;;;;;;;7.53;1.52;;;;;;;-143.49;100.00;65027.28;5095096;28;20367;-72
2023/07/25 06:47:56;;;;;;;4.15;1.15;;;;;;;-143.49;100.00;65027.28;5095219;28;20360;-72
2023/07/25 06:50:21;;;;;;;5.35;1.23;;;;;;;-143.49;100.00;65027.28;5095149;28;20039;-71
2023/07/25 06:52:46;;;;;;;7.38;1.45;;;;;;;-143.49;100.00;65027.28;5078045;28;20497;-74
2023/07/25 06:55:12;;;;;;;9.85;1.67;;;;;;;-143.49;100.00;65027.28;5079775;28;20113;-73
2023/07/25 06:57:39;;;;;;;4.20;1.45;;;;;;;-143.49;100.00;65027.28;5078601;28;20032;-74
2023/07/25 07:00:08;;;;;;;6.28;1.20;;;;;;;-143.49;100.00;65027.28;5078897;28;20080;-72
2023/07/25 07:02:33;;;;;;;7.53;1.70;;;;;;;-143.49;100.00;65027.28;5096648;28;20028;-71
2023/07/25 07:04:58;;;;;;;8.57;1.52;;;;;;;-143.49;100.00;65027.28;5078892;28;20035;-73
2023/07/25 07:07:24;;;;;;;3.05;0.90;;;;;;;-143.49;100.00;65027.28;5078967;28;20020;-73
2023/07/25 07:09:49;;;;;;;5.47;1.17;;;;;;;-143.49;100.00;65027.28;5077818;28;20058;-71
2023/07/25 07:12:16;;;;;;;5.13;0.90;;;;;;;-143.49;100.00;65027.28;5078136;28;20042;-71
2023/07/25 07:14:41;;;;;;;4.72;1.30;;;;;;;-143.49;100.00;65027.28;5096627;28;20381;-73
2023/07/25 07:17:07;;;;;;;6.70;1.20;;;;;;;-143.49;100.00;65027.28;5096024;28;20062;-74
2023/07/25 07:19:33;;;;;;;5.15;0.82;;;;;;;-143.49;100.00;65027.28;5076934;28;20036;-74
2023/07/25 07:21:58;;;;;;;3.50;1.13;;;;;;;-143.49;100.00;65027.28;5095199;28;20024;-72
2023/07/25 07:24:23;;;;;;;5.22;0.98;;;;;;;-143.49;100.00;65027.28;5094660;28;20371;-72
2023/07/25 07:26:49;;;;;;;5.65;1.17;;;;;;;-143.49;100.00;65027.28;5076193;28;20020;-72
2023/07/25 07:29:14;;;;;;;8.18;1.33;;;;;;;-143.49;100.00;65027.28;5076194;28;20031;-72
2023/07/25 07:31:39;;;;;;;4.18;0.88;;;;;;;-143.49;100.00;65027.28;5094091;28;20031;-72
2023/07/25 07:34:15;;;;;;;3.55;1.08;;;;;;;-143.49;100.00;65027.28;5094384;28;20024;-72
2023/07/25 07:36:41;;;;;;;5.53;1.20;;;;;;;-143.49;100.00;65027.28;5093984;28;20534;-71
2023/07/25 07:39:07;;;;;;;3.17;1.05;;;;;;;-143.49;100.00;65027.28;5075236;28;20016;-71
2023/07/25 07:41:32;;;;;;;2.30;0.82;;;;;;;-143.49;100.00;65027.28;5074481;28;20729;-72
2023/07/25 07:43:57;;;;;;;6.25;0.90;;;;;;;-143.49;100.00;65027.28;5092651;28;20544;-72
2023/07/25 07:46:23;;;;;;;6.57;1.15;;;;;;;-143.49;100.00;65027.28;5092629;28;20395;-72
2023/07/25 07:48:48;;;;;;;3.10;0.90;;;;;;;-143.49;100.00;65027.28;5074390;28;20035;-72
2023/07/25 07:51:13;;;;;;;4.40;1.00;;;;;;;-143.49;100.00;65027.28;5092568;28;20057;-71
2023/07/25 07:53:39;;;;;;;3.75;1.10;;;;;;;-143.49;100.00;65027.28;5092576;28;20024;-71
2023/07/25 07:56:04;;;;;;;4.30;0.73;;;;;;;-143.49;100.00;65027.28;5092636;28;20531;-71
2023/07/25 07:58:30;;;;;;;4.03;1.17;;;;;;;-143.49;100.00;65027.28;5074513;28;20020;-71
2023/07/25 08:00:55;;;;;;;4.95;0.82;;;;;;;-143.49;100.00;65027.28;5093753;28;20078;-71
2023/07/25 08:03:20;;;;;;;4.47;0.82;;;;;;;-143.49;100.00;65027.28;5093873;28;20024;-72
2023/07/25 08:05:46;;;;;;;5.65;1.05;;;;;;;-143.49;100.00;65027.28;5094041;28;20020;-71
2023/07/25 08:08:14;;;;;;;2.55;0.80;;;;;;;-143.49;100.00;65027.28;5093507;28;20032;-72
2023/07/25 08:10:39;;;;;;;4.95;0.80;;;;;;;-143.49;100.00;65027.28;5093852;28;20067;-72
2023/07/25 08:13:05;;;;;;;2.92;0.80;;;;;;;-143.49;100.00;65027.28;5093960;28;20423;-73
2023/07/25 08:15:30;;;;;;;3.58;1.00;;;;;;;-143.49;100.00;65027.28;5093734;28;20020;-73
2023/07/25 08:17:55;;;;;;;3.17;0.80;;;;;;;-143.49;100.00;65027.28;5093708;28;20166;-73
2023/07/25 08:20:21;;;;;;;3.60;0.90;;;;;;;-143.49;100.00;65027.28;5093712;28;20028;-74
2023/07/25 08:22:46;;;;;;;5.55;1.02;;;;;;;-143.49;100.00;65027.28;5075285;28;20127;-73
2023/07/25 08:25:11;;;;;;;7.40;1.05;;;;;;;-143.49;100.00;65027.28;5094079;28;20415;-73
2023/07/25 08:27:37;;;;;;;5.57;1.23;;;;;;;-143.49;100.00;65027.28;5093511;28;20487;-73
2023/07/25 08:30:03;;;;;;;4.28;0.95;;;;;;;-143.49;100.00;65027.28;5075922;28;20376;-72
2023/07/25 08:32:28;;;;;;;2.03;0.70;;;;;;;-143.49;100.00;65027.28;5093878;28;20039;-72
2023/07/25 08:34:53;;;;;;;6.15;1.00;;;;;;;-143.49;100.00;65027.28;5093451;28;20124;-73
2023/07/25 08:37:19;;;;;;;5.40;1.00;;;;;;;-143.49;100.00;65027.28;5093511;28;20020;-72
2023/07/25 08:39:44;;;;;;;1.88;0.73;;;;;;;-143.49;100.00;65027.28;5093684;28;20076;-73
2023/07/25 08:42:11;;;;;;;10.93;1.42;;;;;;;-143.49;100.00;65027.28;5076109;28;20020;-73
2023/07/25 08:44:39;;;;;;;6.93;1.13;;;;;;;-143.49;100.00;65027.28;5098301;28;20028;-72
2023/07/25 08:47:11;;;;;;;2.38;0.93;;;;;;;-143.49;100.00;65027.28;5097871;28;20050;-72
2023/07/25 08:49:40;;;;;;;7.13;1.10;;;;;;;-143.49;100.00;65027.28;5097328;28;20153;-73
2023/07/25 08:52:08;;;;;;;2.15;0.63;;;;;;;-143.49;100.00;65027.28;5097314;28;20471;-72
2023/07/25 08:54:35;;;;;;;5.40;1.20;;;;;;;-143.49;100.00;65027.28;5097289;28;20023;-72
2023/07/25 08:57:01;;;;;;;4.00;0.80;;;;;;;-143.49;100.00;65027.28;5097420;28;20479;-72
2023/07/25 08:59:27;;;;;;;3.55;1.20;;;;;;;-143.49;100.00;65027.28;5097208;28;20098;-72
2023/07/25 09:01:53;;;;;;;3.22;0.85;;;;;;;-143.49;100.00;65027.28;5097191;28;20112;-73
2023/07/25 09:04:20;;;;;;;3.95;0.98;;;;;;;-143.49;100.00;65027.28;5097548;28;20086;-72
2023/07/25 09:06:45;;;;;;;4.40;0.88;;;;;;;-143.49;100.00;65027.28;5097213;28;20057;-72
2023/07/25 09:09:11;;;;;;;5.35;0.73;;;;;;;-143.49;100.00;65027.28;5097088;28;20564;-72
2023/07/25 09:11:37;;;;;;;9.90;1.10;;;;;;;-143.49;100.00;65027.28;5097008;28;20042;-72
2023/07/25 09:14:02;;;;;;;6.00;0.77;;;;;;;-143.49;100.00;65027.28;5097271;28;20024;-72
2023/07/25 09:16:30;;;;;;;3.75;0.90;;;;;;;-143.49;100.00;65027.28;5097161;28;20110;-72
2023/07/25 09:18:55;;;;;;;3.67;0.93;;;;;;;-143.49;100.00;65027.28;5078896;28;20371;-72
2023/07/25 09:21:20;;;;;;;3.40;0.77;;;;;;;-143.49;100.00;65027.28;5078568;28;20107;-72
2023/07/25 09:23:57;;;;;;;4.68;1.45;;;;;;;-143.49;100.00;65027.28;5096743;28;20093;-71
2023/07/25 09:26:26;;;;;;;3.60;0.85;;;;;;;-143.49;100.00;65027.28;5096878;28;20427;-71
2023/07/25 09:28:53;;;;;;;2.80;0.80;;;;;;;-143.49;100.00;65027.28;5096715;28;20028;-71
2023/07/25 09:31:20;;;;;;;2.90;0.70;;;;;;;-143.49;100.00;65027.28;5078330;28;20061;-71
2023/07/25 09:33:49;;;;;;;3.55;0.80;;;;;;;-143.49;100.00;65027.28;5096606;28;20020;-71
2023/07/25 09:36:16;;;;;;;5.20;1.00;;;;;;;-143.49;100.00;65027.28;5078240;28;20388;-72
2023/07/25 09:38:49;;;;;;;2.72;0.70;;;;;;;-143.49;100.00;65027.28;5096815;28;20356;-71
2023/07/25 09:41:15;;;;;;;5.03;0.80;;;;;;;-143.49;100.00;65027.28;5096585;28;20107;-72
2023/07/25 09:43:41;;;;;;;7.15;0.85;;;;;;;-143.49;100.00;65027.28;5096284;28;20024;-72
2023/07/25 09:46:06;;;;;;;6.47;0.70;;;;;;;-143.49;100.00;65027.28;5078064;28;20506;-72
2023/07/25 09:48:32;;;;;;;2.25;0.70;;;;;;;-143.49;100.00;65027.28;5096556;28;20090;-71
2023/07/25 09:50:58;;;;;;;4.80;0.90;;;;;;;-143.49;100.00;65027.28;5096584;28;20107;-71
2023/07/25 09:53:24;;;;;;;6.47;0.85;;;;;;;-143.49;100.00;65027.28;5095783;28;20532;-71
2023/07/25 09:55:49;;;;;;;7.20;0.82;;;;;;;-143.49;100.00;65027.28;5078151;28;20051;-72
2023/07/25 09:58:15;;;;;;;3.42;0.75;;;;;;;-143.49;100.00;65027.28;5096208;28;20020;-72
2023/07/25 10:00:41;;;;;;;3.55;0.65;;;;;;;-143.49;100.00;65027.28;5096068;28;20448;-72
2023/07/25 10:03:10;;;;;;;5.03;0.90;;;;;;;-143.49;100.00;65027.28;5096272;28;20069;-72
2023/07/25 10:05:41;;;;;;;4.55;0.80;;;;;;;-143.49;100.00;65027.28;5096036;28;20097;-71
2023/07/25 10:08:08;;;;;;;2.67;0.90;;;;;;;-143.49;100.00;65027.28;5077627;28;20475;-71
2023/07/25 10:10:33;;;;;;;3.53;0.82;;;;;;;-143.49;100.00;65027.28;5095632;28;20024;-72
2023/07/25 10:12:59;;;;;;;3.88;1.00;;;;;;;-143.49;100.00;65027.28;5094998;28;20099;-72
2023/07/25 10:15:25;;;;;;;4.05;0.77;;;;;;;-143.49;100.00;65027.28;5095895;28;20455;-72
2023/07/25 10:17:50;;;;;;;3.88;0.90;;;;;;;-143.49;100.00;65027.28;5095938;28;20120;-71
2023/07/25 10:20:22;;;;;;;1.48;0.60;;;;;;;-143.49;100.00;65027.28;5095531;28;20016;-72
2023/07/25 10:22:47;;;;;;;6.45;1.42;;;;;;;-143.49;100.00;65027.28;5095887;28;20030;-71
2023/07/25 10:25:29;;;;;;;4.03;0.90;;;;;;;-143.49;100.00;65027.28;5077307;28;20055;-71
2023/07/25 10:28:02;;;;;;;6.68;1.10;;;;;;;-143.49;100.00;65027.28;5095332;28;20459;-71
2023/07/25 10:30:33;;;;;;;3.80;0.93;;;;;;;-143.49;100.00;65027.28;5095500;28;20024;-71
2023/07/25 10:33:03;;;;;;;3.00;0.80;;;;;;;-143.49;100.00;65027.28;5095276;28;20052;-71
2023/07/25 10:35:41;;;;;;;5.43;1.00;;;;;;;-143.49;100.00;65027.28;5095682;28;20024;-72
2023/07/25 10:38:12;;;;;;;4.63;0.82;;;;;;;-143.49;100.00;65027.28;5095076;28;20024;-70
2023/07/25 10:40:58;;;;;;;4.05;1.02;;;;;;;-143.49;100.00;65027.28;5076905;28;20468;-72
2023/07/25 10:43:48;;;;;;;3.85;1.10;;;;;;;-143.49;100.00;65027.28;5077059;28;20020;-71
2023/07/25 10:46:20;;;;;;;6.25;0.80;;;;;;;-143.49;100.00;65027.28;5094607;28;20036;-71
2023/07/25 10:48:51;;;;;;;3.17;0.90;;;;;;;-143.49;100.00;65027.28;5094721;28;20020;-71
2023/07/25 10:51:18;;;;;;;4.75;1.08;;;;;;;-143.49;100.00;65027.28;5076701;28;20021;-71
2023/07/25 10:54:09;;;;;;;5.47;0.88;;;;;;;-143.49;100.00;65027.28;5094815;28;20073;-71
2023/07/25 10:56:38;;;;;;;5.53;0.93;;;;;;;-143.49;100.00;65027.28;5094996;28;20463;-71
2023/07/25 10:59:05;;;;;;;4.25;0.88;;;;;;;-143.49;100.00;65027.28;5095066;28;20119;-72
2023/07/25 11:01:36;;;;;;;3.40;1.05;;;;;;;-143.49;100.00;65027.28;5095181;28;20016;-72